createdAt,value
2023-04-18T00:01:23.143Z,9.03
2023-04-18T00:03:50.628Z,10.07
2023-04-18T00:06:17.586Z,10.80
2023-04-18T00:08:44.314Z,10.13
2023-04-18T00:11:11.151Z,11.40
2023-04-18T00:13:39.339Z,10.70
2023-04-18T00:16:07.960Z,9.20
2023-04-18T00:18:38.594Z,10.13
2023-04-18T00:21:08.743Z,11.20
2023-04-18T00:23:35.883Z,12.37
2023-04-18T00:26:02.643Z,11.43
2023-04-18T00:28:29.262Z,11.67
2023-04-18T00:30:55.893Z,12.10
2023-04-18T00:33:22.539Z,11.80
2023-04-18T00:35:49.173Z,11.73
2023-04-18T00:38:15.821Z,11.90
2023-04-18T00:40:43.489Z,13.17
2023-04-18T00:43:12.479Z,12.07
2023-04-18T00:45:39.167Z,11.70
2023-04-18T00:48:05.983Z,11.27
2023-04-18T00:50:32.718Z,11.57
2023-04-18T00:52:59.373Z,13.50
2023-04-18T00:55:26.075Z,12.40
2023-04-18T00:57:52.731Z,13.57
2023-04-18T01:00:19.844Z,14.43
2023-04-18T01:02:47.822Z,13.73
2023-04-18T01:05:14.563Z,13.90
2023-04-18T01:07:41.712Z,14.63
2023-04-18T01:10:09.231Z,14.20
2023-04-18T01:12:37.676Z,14.90
2023-04-18T01:15:07.813Z,13.63
2023-04-18T01:17:38.449Z,14.50
2023-04-18T01:20:06.461Z,15.77
2023-04-18T01:22:33.409Z,14.37
2023-04-18T01:25:00.680Z,15.83
2023-04-18T01:27:27.742Z,15.53
2023-04-18T01:29:54.459Z,15.60
2023-04-18T01:32:22.581Z,17.20
2023-04-18T01:34:49.318Z,15.50
2023-04-18T01:37:16.073Z,16.20
2023-04-18T01:39:42.784Z,16.83
2023-04-18T01:42:09.523Z,17.27
2023-04-18T01:44:36.384Z,17.23
2023-04-18T01:47:03.237Z,15.80
2023-04-18T01:49:30.000Z,15.90
2023-04-18T01:51:56.672Z,17.47
2023-04-18T01:54:23.546Z,17.13
2023-04-18T01:56:50.169Z,16.10
2023-04-18T01:59:16.795Z,16.53
2023-04-18T02:01:43.535Z,18.90
2023-04-18T02:04:10.274Z,16.87
2023-04-18T02:06:36.990Z,17.17
2023-04-18T02:09:03.702Z,17.00
2023-04-18T02:11:30.468Z,17.87
2023-04-18T02:13:57.449Z,16.77
2023-04-18T02:16:24.184Z,16.73
2023-04-18T02:18:53.640Z,17.87
2023-04-18T02:21:21.670Z,17.77
2023-04-18T02:23:48.594Z,16.67
2023-04-18T02:26:15.323Z,17.80
2023-04-18T02:28:42.031Z,16.80
2023-04-18T02:31:14.391Z,16.53
2023-04-18T02:33:45.525Z,16.70
2023-04-18T02:36:12.775Z,17.40
2023-04-18T02:38:39.398Z,17.40
2023-04-18T02:41:06.123Z,17.00
2023-04-18T02:43:33.243Z,18.80
2023-04-18T02:45:59.998Z,16.73
2023-04-18T02:48:26.736Z,17.33
2023-04-18T02:50:53.501Z,17.93
2023-04-18T02:53:23.790Z,18.50
2023-04-18T02:55:50.417Z,17.20
2023-04-18T02:58:17.046Z,17.70
2023-04-18T03:00:43.683Z,18.10
2023-04-18T03:03:10.599Z,16.83
2023-04-18T03:05:37.381Z,17.53
2023-04-18T03:08:04.104Z,17.37
2023-04-18T03:10:31.375Z,17.57
2023-04-18T03:12:58.130Z,18.17
2023-04-18T03:15:24.781Z,18.00
2023-04-18T03:17:51.494Z,18.60
2023-04-18T03:20:18.187Z,17.03
2023-04-18T03:22:44.965Z,18.23
2023-04-18T03:25:11.733Z,19.30
2023-04-18T03:27:38.447Z,17.20
2023-04-18T03:30:05.748Z,17.37
2023-04-18T03:32:33.960Z,17.37
2023-04-18T03:35:00.689Z,18.60
2023-04-18T03:37:27.319Z,19.50
2023-04-18T03:39:54.099Z,18.27
2023-04-18T03:42:20.722Z,19.17
2023-04-18T03:44:47.766Z,20.23
2023-04-18T03:47:17.451Z,18.93
2023-04-18T03:49:44.136Z,19.40
2023-04-18T03:52:10.771Z,18.30
2023-04-18T03:54:37.497Z,18.60
2023-04-18T03:57:04.333Z,18.60
2023-04-18T03:59:31.479Z,19.67
2023-04-18T04:01:58.605Z,20.33
2023-04-18T04:04:26.349Z,20.00
2023-04-18T04:06:53.193Z,21.37
2023-04-18T04:09:19.821Z,19.00
2023-04-18T04:11:46.529Z,19.90
2023-04-18T04:14:13.485Z,20.07
2023-04-18T04:16:40.540Z,20.80
2023-04-18T04:19:13.417Z,18.80
2023-04-18T04:21:42.445Z,21.37
2023-04-18T04:24:09.531Z,19.63
2023-04-18T04:26:36.383Z,20.67
2023-04-18T04:29:03.682Z,21.67
2023-04-18T04:31:30.483Z,19.03
2023-04-18T04:33:57.467Z,20.00
2023-04-18T04:36:27.163Z,20.47
2023-04-18T04:38:53.840Z,20.43
2023-04-18T04:41:22.332Z,22.07
2023-04-18T04:43:49.945Z,21.80
2023-04-18T04:46:20.001Z,22.10
2023-04-18T04:48:49.483Z,20.90
2023-04-18T04:51:16.114Z,20.43
2023-04-18T04:53:45.567Z,21.87
2023-04-18T04:56:12.650Z,20.83
2023-04-18T04:58:39.861Z,21.30
2023-04-18T05:01:07.703Z,21.60
2023-04-18T05:03:37.058Z,20.57
2023-04-18T05:06:06.911Z,22.50
2023-04-18T05:08:33.790Z,22.07
2023-04-18T05:11:01.736Z,20.93
2023-04-18T05:13:28.474Z,20.60
2023-04-18T05:15:55.775Z,22.00
2023-04-18T05:18:22.998Z,22.87
2023-04-18T05:20:49.713Z,20.90
2023-04-18T05:23:16.941Z,20.73
2023-04-18T05:25:44.021Z,21.27
2023-04-18T05:28:10.661Z,22.30
2023-04-18T05:30:37.858Z,21.37
2023-04-18T05:33:05.426Z,21.80
2023-04-18T05:35:32.234Z,22.40
2023-04-18T05:37:59.041Z,22.43
2023-04-18T05:40:27.313Z,20.60
2023-04-18T05:42:54.376Z,21.53
2023-04-18T05:45:21.501Z,20.97
2023-04-18T05:47:48.370Z,20.43
2023-04-18T05:50:15.205Z,20.97
2023-04-18T05:52:41.836Z,21.80
2023-04-18T05:55:08.932Z,21.83
2023-04-18T05:57:35.740Z,21.10
2023-04-18T06:00:02.562Z,21.77
2023-04-18T06:02:29.464Z,21.27
2023-04-18T06:04:56.828Z,21.73
2023-04-18T06:07:25.498Z,21.63
2023-04-18T06:09:54.068Z,22.07
2023-04-18T06:12:21.327Z,24.10
2023-04-18T06:14:47.959Z,22.50
2023-04-18T06:17:14.784Z,22.97
2023-04-18T06:19:41.444Z,21.37
2023-04-18T06:22:08.233Z,23.50
2023-04-18T06:24:35.391Z,23.30
2023-04-18T06:27:02.967Z,20.53
2023-04-18T06:29:33.100Z,21.80
2023-04-18T06:31:59.944Z,22.53
2023-04-18T06:34:27.024Z,23.07
2023-04-18T06:36:53.649Z,20.70
2023-04-18T06:39:20.266Z,23.87
2023-04-18T06:41:48.386Z,21.37
2023-04-18T06:44:15.394Z,22.50
2023-04-18T06:46:42.488Z,21.07
2023-04-18T06:49:09.668Z,21.70
2023-04-18T06:51:36.597Z,21.57
2023-04-18T06:54:03.669Z,21.00
2023-04-18T06:56:30.695Z,20.57
2023-04-18T06:58:57.408Z,20.33
2023-04-18T07:01:24.120Z,20.13
2023-04-18T07:03:50.833Z,18.83
2023-04-18T07:06:17.618Z,19.90
2023-04-18T07:08:44.316Z,20.20
2023-04-18T07:11:13.110Z,19.73
2023-04-18T07:13:39.772Z,18.23
2023-04-18T07:16:07.091Z,18.97
2023-04-18T07:18:38.054Z,20.00
2023-04-18T07:21:07.489Z,19.27
2023-04-18T07:23:34.843Z,18.80
2023-04-18T07:26:02.710Z,18.40
2023-04-18T07:28:30.667Z,18.97
2023-04-18T07:30:57.405Z,18.13
2023-04-18T07:33:24.546Z,18.97
2023-04-18T07:35:52.351Z,17.17
2023-04-18T07:38:18.976Z,16.70
2023-04-18T07:40:45.720Z,16.90
2023-04-18T07:43:12.471Z,18.50
2023-04-18T07:45:39.304Z,16.13
2023-04-18T07:48:06.245Z,18.07
2023-04-18T07:50:33.464Z,17.20
2023-04-18T07:53:01.336Z,17.20
2023-04-18T07:55:27.959Z,15.97
2023-04-18T07:57:54.574Z,15.83
2023-04-18T08:00:21.461Z,17.10
2023-04-18T08:02:48.308Z,17.07
2023-04-18T08:05:15.144Z,16.70
2023-04-18T08:07:41.891Z,15.10
2023-04-18T08:10:09.045Z,15.70
2023-04-18T08:12:36.719Z,17.90
2023-04-18T08:15:04.316Z,16.43
2023-04-18T08:17:31.091Z,17.10
2023-04-18T08:19:57.831Z,16.00
2023-04-18T08:22:24.476Z,16.30
2023-04-18T08:25:03.688Z,14.90
2023-04-18T08:27:31.473Z,15.07
2023-04-18T08:29:58.218Z,15.53
2023-04-18T08:32:24.909Z,14.60
2023-04-18T08:34:51.601Z,16.10
2023-04-18T08:37:18.262Z,16.23
2023-04-18T08:39:45.062Z,15.00
2023-04-18T08:42:11.842Z,15.00
2023-04-18T08:44:38.501Z,15.40
2023-04-18T08:47:07.746Z,14.80
2023-04-18T08:49:34.368Z,14.47
2023-04-18T08:52:01.475Z,12.70
2023-04-18T08:54:30.353Z,14.60
2023-04-18T08:57:07.406Z,13.73
2023-04-18T08:59:35.633Z,13.10
2023-04-18T09:02:03.972Z,13.13
2023-04-18T09:04:44.926Z,11.57
2023-04-18T09:07:17.764Z,11.73
2023-04-18T09:09:46.122Z,13.00
2023-04-18T09:12:18.274Z,11.90
2023-04-18T09:14:53.448Z,14.70
2023-04-18T09:17:45.613Z,13.60
2023-04-18T09:20:37.469Z,13.47
2023-04-18T09:23:05.434Z,12.17
2023-04-18T09:25:44.158Z,12.90
2023-04-18T09:28:30.533Z,12.30
2023-04-18T09:31:09.511Z,12.43
2023-04-18T09:33:37.008Z,12.53
2023-04-18T09:36:17.848Z,13.10
2023-04-18T09:38:44.650Z,13.60
2023-04-18T09:41:11.825Z,12.00
2023-04-18T09:43:38.952Z,11.77
2023-04-18T09:46:05.729Z,11.83
2023-04-18T09:48:32.434Z,13.07
2023-04-18T09:51:00.095Z,12.80
2023-04-18T09:53:26.763Z,11.23
2023-04-18T09:55:54.963Z,11.73
2023-04-18T09:58:23.746Z,13.00
2023-04-18T10:00:50.610Z,12.37
2023-04-18T10:03:18.403Z,12.27
2023-04-18T10:05:45.787Z,11.50
2023-04-18T10:08:13.462Z,11.70
2023-04-18T10:10:40.750Z,13.20
2023-04-18T10:13:08.526Z,12.87
2023-04-18T10:15:35.633Z,11.70
2023-04-18T10:18:06.254Z,12.47
2023-04-18T10:20:34.650Z,10.83
2023-04-18T10:23:32.198Z,11.03
2023-04-18T10:25:59.262Z,10.07
2023-04-18T10:28:27.497Z,10.50
2023-04-18T10:30:56.245Z,10.97
2023-04-18T10:33:30.376Z,9.70
2023-04-18T10:36:11.533Z,10.30
2023-04-18T10:38:45.275Z,10.13
2023-04-18T10:41:29.220Z,9.70
2023-04-18T10:44:08.776Z,11.63
2023-04-18T10:46:38.667Z,10.60
2023-04-18T10:49:20.559Z,10.60
2023-04-18T10:51:47.982Z,10.47
2023-04-18T10:54:32.872Z,10.10
2023-04-18T10:57:01.781Z,11.00
2023-04-18T10:59:28.995Z,11.10
2023-04-18T11:01:57.271Z,11.20
2023-04-18T11:04:24.514Z,10.90
2023-04-18T11:06:55.009Z,9.40
2023-04-18T11:09:22.421Z,9.43
2023-04-18T11:12:06.193Z,9.23
2023-04-18T11:14:59.684Z,10.50
2023-04-18T11:17:27.157Z,9.10
2023-04-18T11:20:09.248Z,8.87
2023-04-18T11:23:06.618Z,9.07
2023-04-18T11:25:36.513Z,8.70
2023-04-18T11:28:03.940Z,8.30
2023-04-18T11:30:37.594Z,11.00
2023-04-18T11:33:13.745Z,10.13
2023-04-18T11:35:41.405Z,10.60
2023-04-18T11:38:08.738Z,10.10
2023-04-18T11:40:36.457Z,10.03
2023-04-18T11:43:04.539Z,11.13
2023-04-18T11:45:31.275Z,9.83
2023-04-18T11:47:58.933Z,10.23
2023-04-18T11:50:26.101Z,9.40
2023-04-18T11:52:53.533Z,9.10
2023-04-18T11:55:25.049Z,8.70
2023-04-18T11:57:55.049Z,8.13
2023-04-18T12:00:38.661Z,9.40
2023-04-18T12:03:06.895Z,9.30
2023-04-18T12:05:35.393Z,8.70
2023-04-18T12:08:07.038Z,9.80
2023-04-18T12:10:35.782Z,8.90
2023-04-18T12:13:03.087Z,8.90
2023-04-18T12:15:29.775Z,8.40
2023-04-18T12:18:03.813Z,9.07
2023-04-18T12:20:34.862Z,9.20
2023-04-18T12:23:02.313Z,11.13
2023-04-18T12:25:29.223Z,9.87
2023-04-18T12:28:15.230Z,8.93
2023-04-18T12:30:42.322Z,9.50
2023-04-18T12:33:09.361Z,8.73
2023-04-18T12:35:36.054Z,9.93
2023-04-18T12:38:03.246Z,8.93
2023-04-18T12:40:30.039Z,8.80
2023-04-18T12:42:56.733Z,8.93
2023-04-18T12:45:23.528Z,9.30
2023-04-18T12:47:51.337Z,8.20
2023-04-18T12:50:20.056Z,8.60
2023-04-18T12:52:46.860Z,8.37
2023-04-18T12:55:13.554Z,7.90
2023-04-18T12:57:40.892Z,9.10
2023-04-18T13:00:10.994Z,9.07
2023-04-18T13:02:38.963Z,8.00
2023-04-18T13:05:07.838Z,6.97
2023-04-18T13:07:34.690Z,8.07
2023-04-18T13:10:01.393Z,8.23
2023-04-18T13:12:29.424Z,8.33
2023-04-18T13:14:56.853Z,8.27
2023-04-18T13:17:23.807Z,7.77
2023-04-18T13:19:50.965Z,8.13
2023-04-18T13:22:21.127Z,7.73
2023-04-18T13:24:47.898Z,7.17
2023-04-18T13:27:14.830Z,7.50
2023-04-18T13:29:41.942Z,8.13
2023-04-18T13:32:09.125Z,7.90
2023-04-18T13:34:38.989Z,6.97
2023-04-18T13:37:06.310Z,8.47
2023-04-18T13:39:33.172Z,7.00
2023-04-18T13:42:02.698Z,9.00
2023-04-18T13:44:32.551Z,8.23
2023-04-18T13:47:00.720Z,8.20
2023-04-18T13:49:27.422Z,9.07
2023-04-18T13:51:57.124Z,7.67
2023-04-18T13:54:27.681Z,7.43
2023-04-18T13:56:54.862Z,8.50
2023-04-18T13:59:21.467Z,8.00
2023-04-18T14:01:49.162Z,8.17
2023-04-18T14:04:16.581Z,7.67
2023-04-18T14:06:43.586Z,8.03
2023-04-18T14:09:10.290Z,8.50
2023-04-18T14:11:36.943Z,8.10
2023-04-18T14:14:03.729Z,8.47
2023-04-18T14:16:32.629Z,8.13
2023-04-18T14:18:59.976Z,8.67
2023-04-18T14:21:26.962Z,7.77
2023-04-18T14:23:53.753Z,7.33
2023-04-18T14:26:20.698Z,7.30
2023-04-18T14:28:47.593Z,8.60
2023-04-18T14:31:14.674Z,8.63
2023-04-18T14:33:41.986Z,8.20
2023-04-18T14:36:09.280Z,8.03
2023-04-18T14:38:36.093Z,7.70
2023-04-18T14:41:04.506Z,8.60
2023-04-18T14:43:31.270Z,7.97
2023-04-18T14:45:59.463Z,8.40
2023-04-18T14:48:26.671Z,9.67
2023-04-18T14:51:00.046Z,11.03
2023-04-18T14:53:27.120Z,9.50
2023-04-18T14:55:53.785Z,9.60
2023-04-18T14:58:20.640Z,9.10
2023-04-18T15:00:47.353Z,9.67
2023-04-18T15:03:14.090Z,8.67
2023-04-18T15:05:44.950Z,10.00
2023-04-18T15:08:11.678Z,9.90
2023-04-18T15:10:40.053Z,8.83
2023-04-18T15:13:06.724Z,10.10
2023-04-18T15:15:37.653Z,9.60
2023-04-18T15:18:04.382Z,8.23
2023-04-18T15:20:31.172Z,9.90
2023-04-18T15:22:57.834Z,9.30
2023-04-18T15:25:26.075Z,9.70
2023-04-18T15:27:52.833Z,9.90
2023-04-18T15:30:19.617Z,9.33
2023-04-18T15:32:46.300Z,9.57
2023-04-18T15:35:13.111Z,9.10
2023-04-18T15:37:39.762Z,9.93
2023-04-18T15:40:09.468Z,9.33
2023-04-18T15:42:36.102Z,9.60
2023-04-18T15:45:04.246Z,9.53
2023-04-18T15:47:31.644Z,8.73
2023-04-18T15:49:58.325Z,9.23
2023-04-18T15:52:24.945Z,9.30
2023-04-18T15:54:52.202Z,8.33
2023-04-18T15:57:19.049Z,10.23
2023-04-18T15:59:45.817Z,9.50
2023-04-18T16:02:12.490Z,9.80
2023-04-18T16:04:39.196Z,9.67
2023-04-18T16:07:06.413Z,9.83
2023-04-18T16:09:33.072Z,10.80
2023-04-18T16:12:00.711Z,9.47
2023-04-18T16:14:31.192Z,9.50
2023-04-18T16:16:58.609Z,9.50
2023-04-18T16:19:25.318Z,9.30
2023-04-18T16:21:52.042Z,9.30
2023-04-18T16:24:18.792Z,9.23
2023-04-18T16:26:45.637Z,8.20
2023-04-18T16:29:12.265Z,8.83
2023-04-18T16:31:39.467Z,9.37
2023-04-18T16:34:06.166Z,9.67
2023-04-18T16:36:34.693Z,8.57
2023-04-18T16:39:01.411Z,7.97
2023-04-18T16:41:28.179Z,9.87
2023-04-18T16:43:56.127Z,8.77
2023-04-18T16:46:23.344Z,9.10
2023-04-18T16:48:52.265Z,8.40
2023-04-18T16:51:19.188Z,9.37
2023-04-18T16:53:47.862Z,9.53
2023-04-18T16:56:15.606Z,9.13
2023-04-18T16:58:42.368Z,9.13
2023-04-18T17:01:09.094Z,9.57
2023-04-18T17:03:36.689Z,8.73
2023-04-18T17:06:03.862Z,9.47
2023-04-18T17:08:32.827Z,9.23
2023-04-18T17:10:59.768Z,8.27
2023-04-18T17:13:27.197Z,8.90
2023-04-18T17:15:54.100Z,8.50
2023-04-18T17:18:20.918Z,9.00
2023-04-18T17:20:47.736Z,9.77
2023-04-18T17:23:14.489Z,9.03
2023-04-18T17:25:41.269Z,8.83
2023-04-18T17:28:07.990Z,10.03
2023-04-18T17:30:34.726Z,9.53
2023-04-18T17:33:01.594Z,10.33
2023-04-18T17:35:28.309Z,9.90
2023-04-18T17:37:54.931Z,9.47
2023-04-18T17:40:21.578Z,9.97
2023-04-18T17:42:48.307Z,9.63
2023-04-18T17:45:15.435Z,9.10
2023-04-18T17:47:42.539Z,9.63
2023-04-18T17:50:09.593Z,10.17
2023-04-18T17:52:36.258Z,9.40
2023-04-18T17:55:03.929Z,9.43
2023-04-18T17:57:30.681Z,9.50
2023-04-18T17:59:57.283Z,9.43
2023-04-18T18:02:24.029Z,10.80
2023-04-18T18:04:51.499Z,9.83
2023-04-18T18:07:18.395Z,9.77
2023-04-18T18:09:45.617Z,9.80
2023-04-18T18:12:12.457Z,9.97
2023-04-18T18:14:42.835Z,8.93
2023-04-18T18:17:09.652Z,10.00
2023-04-18T18:19:39.334Z,9.33
2023-04-18T18:22:07.026Z,9.63
2023-04-18T18:24:33.744Z,9.13
2023-04-18T18:27:00.424Z,10.10
2023-04-18T18:29:27.211Z,9.77
2023-04-18T18:31:53.890Z,10.27
2023-04-18T18:34:21.493Z,8.87
2023-04-18T18:36:48.173Z,10.00
2023-04-18T18:39:16.461Z,8.77
2023-04-18T18:41:43.361Z,10.83
2023-04-18T18:44:11.519Z,10.07
2023-04-18T18:46:38.208Z,11.90
2023-04-18T18:49:05.079Z,9.43
2023-04-18T18:51:31.738Z,11.00
2023-04-18T18:53:58.396Z,11.17
2023-04-18T18:56:25.095Z,10.40
2023-04-18T18:58:53.719Z,10.87
2023-04-18T19:01:20.802Z,10.90
2023-04-18T19:03:48.057Z,10.70
2023-04-18T19:06:14.866Z,10.07
2023-04-18T19:08:41.532Z,10.93
2023-04-18T19:11:09.613Z,10.97
2023-04-18T19:13:36.264Z,9.10
2023-04-18T19:16:03.010Z,10.90
2023-04-18T19:18:30.165Z,9.57
2023-04-18T19:20:56.818Z,9.90
2023-04-18T19:23:25.164Z,9.07
2023-04-18T19:25:52.268Z,9.23
2023-04-18T19:28:19.099Z,9.60
2023-04-18T19:30:46.450Z,10.00
2023-04-18T19:33:13.053Z,9.50
2023-04-18T19:35:40.225Z,10.33
2023-04-18T19:38:06.968Z,9.97
2023-04-18T19:40:33.615Z,10.27
2023-04-18T19:43:00.335Z,9.10
2023-04-18T19:45:27.028Z,10.33
2023-04-18T19:47:53.745Z,9.50
2023-04-18T19:50:20.424Z,10.10
2023-04-18T19:52:47.064Z,8.90
2023-04-18T19:55:14.182Z,10.07
2023-04-18T19:57:42.030Z,9.27
2023-04-18T20:00:10.601Z,10.30
2023-04-18T20:02:37.506Z,9.60
2023-04-18T20:05:05.369Z,10.27
2023-04-18T20:07:34.815Z,9.87
2023-04-18T20:10:01.499Z,10.20
2023-04-18T20:12:28.511Z,9.70
2023-04-18T20:14:55.350Z,10.30
2023-04-18T20:17:22.172Z,10.60
2023-04-18T20:19:49.641Z,10.20
2023-04-18T20:22:16.777Z,11.27
2023-04-18T20:24:45.065Z,9.60
2023-04-18T20:27:11.869Z,10.83
2023-04-18T20:29:38.569Z,9.87
2023-04-18T20:32:05.985Z,10.10
2023-04-18T20:34:32.690Z,9.57
2023-04-18T20:36:59.979Z,10.50
2023-04-18T20:39:27.960Z,11.73
2023-04-18T20:41:57.799Z,10.90
2023-04-18T20:44:24.864Z,10.40
2023-04-18T20:46:53.377Z,10.87
2023-04-18T20:49:21.498Z,11.03
2023-04-18T20:51:48.292Z,10.57
2023-04-18T20:54:15.178Z,10.70
2023-04-18T20:56:42.610Z,10.27
2023-04-18T20:59:09.404Z,9.90
2023-04-18T21:01:37.183Z,10.60
2023-04-18T21:04:04.240Z,10.67
2023-04-18T21:06:31.110Z,9.30
2023-04-18T21:08:57.934Z,10.43
2023-04-18T21:11:24.579Z,10.57
2023-04-18T21:13:51.324Z,9.60
2023-04-18T21:16:18.385Z,10.57
2023-04-18T21:18:45.393Z,9.47
2023-04-18T21:21:12.552Z,10.50
2023-04-18T21:23:43.318Z,10.47
2023-04-18T21:26:11.932Z,12.37
2023-04-18T21:28:57.311Z,11.50
2023-04-18T21:31:24.970Z,11.87
2023-04-18T21:33:54.623Z,10.77
2023-04-18T21:36:21.317Z,11.43
2023-04-18T21:38:48.009Z,10.07
2023-04-18T21:41:16.573Z,11.93
2023-04-18T21:43:43.951Z,10.60
2023-04-18T21:46:13.596Z,10.10
2023-04-18T21:48:41.210Z,10.90
2023-04-18T21:51:09.785Z,10.67
2023-04-18T21:53:38.052Z,10.17
2023-04-18T21:56:05.339Z,9.77
2023-04-18T21:58:32.359Z,10.03
2023-04-18T22:00:59.088Z,11.00
2023-04-18T22:03:26.830Z,10.23
2023-04-18T22:05:55.109Z,11.20
2023-04-18T22:08:22.960Z,10.30
2023-04-18T22:10:50.409Z,11.50
2023-04-18T22:13:18.950Z,12.23
2023-04-18T22:15:46.068Z,11.90
2023-04-18T22:18:14.077Z,11.40
2023-04-18T22:20:44.029Z,11.23
2023-04-18T22:23:10.928Z,10.27
2023-04-18T22:25:37.577Z,11.47
2023-04-18T22:28:04.623Z,10.37
2023-04-18T22:30:31.696Z,12.03
2023-04-18T22:32:58.840Z,11.10
2023-04-18T22:35:26.170Z,11.63
2023-04-18T22:37:52.949Z,10.67
2023-04-18T22:40:20.071Z,10.73
2023-04-18T22:42:47.154Z,11.53
2023-04-18T22:45:14.581Z,10.53
2023-04-18T22:47:41.530Z,12.20
2023-04-18T22:50:08.845Z,11.20
2023-04-18T22:52:35.517Z,11.50
2023-04-18T22:55:02.759Z,11.20
2023-04-18T22:57:29.824Z,11.77
2023-04-18T22:59:56.491Z,10.90
2023-04-18T23:02:23.404Z,10.70
2023-04-18T23:04:50.621Z,11.57
2023-04-18T23:07:17.371Z,11.17
2023-04-18T23:09:44.860Z,11.53
2023-04-18T23:12:11.537Z,12.23
2023-04-18T23:14:38.885Z,11.83
2023-04-18T23:17:05.620Z,11.13
2023-04-18T23:19:32.248Z,10.47
2023-04-18T23:21:59.680Z,11.10
2023-04-18T23:24:26.768Z,10.10
2023-04-18T23:26:53.467Z,10.70
2023-04-18T23:29:20.167Z,11.07
2023-04-18T23:31:47.011Z,11.27
2023-04-18T23:34:13.904Z,10.67
2023-04-18T23:36:42.333Z,12.27
2023-04-18T23:39:11.837Z,11.37
2023-04-18T23:41:39.100Z,12.90
2023-04-18T23:44:06.058Z,12.13
2023-04-18T23:46:34.382Z,11.70
2023-04-18T23:49:05.933Z,12.43
2023-04-18T23:51:32.619Z,13.37
2023-04-18T23:53:59.331Z,12.70
2023-04-18T23:56:26.357Z,12.97
2023-04-18T23:58:53.925Z,13.17
